Decoded Metar for KSMN (SALMON/LEMHI in ID, USA) (IATA:SMN) | Meteo·Mobile Aviation Weather
aviador You're here:

KSMN Decoded Metar

SALMON/LEMHI in ID, USA
Report Time2019-01-19 00:56:00
UTC Time2019-01-19 01:49:33
Flight Rules vfr VFR
Wind100° at 03 kt
W.Decomp.*RWY 17: 0.2 kt HW 3 kt LCW
W.Rank100° ranks 31
Current wind is below 100° avg. (4.8)
Visibility9999 m
Phenomena:N/A
Clouds:Overcast 075 Hf
Expected CloudBase > 1,600 ft AGL from Temp-Dew spread
Ceiling7,500 ft
Temp01°C (ISA -6)
Dew Point-3°C (75% RH)
AAT-2.5°C
QNH1023 hPa
Density Alt3,068 ft
Elevation4,045 ft
Report Wrong Elevation
Raw Report
KSMN 190056Z AUTO 10003KT 10SM OVC075 01/M03 A3020 RMK AO2 SLP266
T00111028 FZRANO=

Extra information for KSMN:More info

Metar Taf Metar & Taf Last 4 Metars F.Rules Stats Wind Profile Meteogram Temp Stats Airport Information Weather charts Add Link Nearby VenuesMetar ALERT Operation Metar Decoded Social comments

AIRNAV info for KSMN